sensor_id;sensor_type;location;lat;lon;timestamp;P1;durP1;ratioP1;P2;durP2;ratioP2
49610;SDS011;35515;48.766;9.176;2023-05-10T00:01:30;2.45;;;1.00;;
49610;SDS011;35515;48.766;9.176;2023-05-10T00:03:56;2.63;;;1.15;;
49610;SDS011;35515;48.766;9.176;2023-05-10T00:06:23;2.38;;;1.35;;
49610;SDS011;35515;48.766;9.176;2023-05-10T00:08:49;1.75;;;1.20;;
49610;SDS011;35515;48.766;9.176;2023-05-10T00:11:16;1.50;;;1.08;;
49610;SDS011;35515;48.766;9.176;2023-05-10T00:13:42;1.58;;;1.00;;
49610;SDS011;35515;48.766;9.176;2023-05-10T00:16:10;1.05;;;0.90;;
49610;SDS011;35515;48.766;9.176;2023-05-10T00:18:38;1.67;;;0.60;;
49610;SDS011;35515;48.766;9.176;2023-05-10T00:21:04;1.23;;;0.70;;
49610;SDS011;35515;48.766;9.176;2023-05-10T00:23:31;1.75;;;0.68;;
49610;SDS011;35515;48.766;9.176;2023-05-10T00:25:58;1.35;;;0.60;;
49610;SDS011;35515;48.766;9.176;2023-05-10T00:28:24;0.75;;;0.70;;
49610;SDS011;35515;48.766;9.176;2023-05-10T00:30:51;0.60;;;0.60;;
49610;SDS011;35515;48.766;9.176;2023-05-10T00:33:18;1.67;;;0.80;;
49610;SDS011;35515;48.766;9.176;2023-05-10T00:35:45;0.90;;;0.50;;
49610;SDS011;35515;48.766;9.176;2023-05-10T00:38:12;2.35;;;0.60;;
49610;SDS011;35515;48.766;9.176;2023-05-10T00:40:39;1.70;;;0.60;;
49610;SDS011;35515;48.766;9.176;2023-05-10T00:43:05;1.00;;;0.50;;
49610;SDS011;35515;48.766;9.176;2023-05-10T00:45:32;0.50;;;0.47;;
49610;SDS011;35515;48.766;9.176;2023-05-10T00:48:00;2.25;;;0.40;;
49610;SDS011;35515;48.766;9.176;2023-05-10T00:50:30;0.68;;;0.50;;
49610;SDS011;35515;48.766;9.176;2023-05-10T00:52:58;1.45;;;0.40;;
49610;SDS011;35515;48.766;9.176;2023-05-10T00:55:25;1.65;;;0.50;;
49610;SDS011;35515;48.766;9.176;2023-05-10T00:57:52;1.73;;;0.40;;
49610;SDS011;35515;48.766;9.176;2023-05-10T01:00:19;1.75;;;0.60;;
49610;SDS011;35515;48.766;9.176;2023-05-10T01:02:46;0.35;;;0.32;;
49610;SDS011;35515;48.766;9.176;2023-05-10T01:05:14;1.38;;;0.50;;
49610;SDS011;35515;48.766;9.176;2023-05-10T01:07:42;2.28;;;0.50;;
49610;SDS011;35515;48.766;9.176;2023-05-10T01:13:31;0.65;;;0.45;;
49610;SDS011;35515;48.766;9.176;2023-05-10T01:15:59;0.93;;;0.70;;
49610;SDS011;35515;48.766;9.176;2023-05-10T01:18:27;1.15;;;0.77;;
49610;SDS011;35515;48.766;9.176;2023-05-10T01:20:56;0.85;;;0.50;;
49610;SDS011;35515;48.766;9.176;2023-05-10T01:23:36;0.73;;;0.60;;
49610;SDS011;35515;48.766;9.176;2023-05-10T01:26:27;2.38;;;0.60;;
49610;SDS011;35515;48.766;9.176;2023-05-10T01:29:11;0.80;;;0.52;;
49610;SDS011;35515;48.766;9.176;2023-05-10T01:34:52;0.50;;;0.50;;
49610;SDS011;35515;48.766;9.176;2023-05-10T01:37:28;0.40;;;0.40;;
49610;SDS011;35515;48.766;9.176;2023-05-10T01:40:03;0.43;;;0.43;;
49610;SDS011;35515;48.766;9.176;2023-05-10T01:42:36;1.48;;;0.60;;
49610;SDS011;35515;48.766;9.176;2023-05-10T01:45:11;0.57;;;0.50;;
49610;SDS011;35515;48.766;9.176;2023-05-10T01:47:46;0.82;;;0.55;;
49610;SDS011;35515;48.766;9.176;2023-05-10T01:50:18;2.53;;;0.50;;
49610;SDS011;35515;48.766;9.176;2023-05-10T01:52:50;2.30;;;0.60;;
49610;SDS011;35515;48.766;9.176;2023-05-10T01:57:47;1.48;;;0.40;;
49610;SDS011;35515;48.766;9.176;2023-05-10T02:00:18;1.08;;;0.60;;
49610;SDS011;35515;48.766;9.176;2023-05-10T02:02:47;2.17;;;0.60;;
49610;SDS011;35515;48.766;9.176;2023-05-10T02:05:16;1.35;;;0.40;;
49610;SDS011;35515;48.766;9.176;2023-05-10T02:07:45;0.40;;;0.40;;
49610;SDS011;35515;48.766;9.176;2023-05-10T02:10:13;1.98;;;0.50;;
49610;SDS011;35515;48.766;9.176;2023-05-10T02:12:42;1.05;;;0.50;;
49610;SDS011;35515;48.766;9.176;2023-05-10T02:15:11;0.52;;;0.45;;
49610;SDS011;35515;48.766;9.176;2023-05-10T02:17:40;1.55;;;0.50;;
49610;SDS011;35515;48.766;9.176;2023-05-10T02:20:08;1.30;;;0.47;;
49610;SDS011;35515;48.766;9.176;2023-05-10T02:22:38;1.05;;;0.40;;
49610;SDS011;35515;48.766;9.176;2023-05-10T02:25:08;0.60;;;0.60;;
49610;SDS011;35515;48.766;9.176;2023-05-10T02:27:36;0.93;;;0.50;;
49610;SDS011;35515;48.766;9.176;2023-05-10T02:30:04;1.17;;;0.40;;
49610;SDS011;35515;48.766;9.176;2023-05-10T02:32:32;0.50;;;0.50;;
49610;SDS011;35515;48.766;9.176;2023-05-10T02:35:01;1.10;;;0.40;;
49610;SDS011;35515;48.766;9.176;2023-05-10T02:37:28;1.60;;;0.50;;
49610;SDS011;35515;48.766;9.176;2023-05-10T02:39:58;1.55;;;0.60;;
49610;SDS011;35515;48.766;9.176;2023-05-10T02:42:28;0.63;;;0.55;;
49610;SDS011;35515;48.766;9.176;2023-05-10T02:44:59;0.75;;;0.45;;
49610;SDS011;35515;48.766;9.176;2023-05-10T02:47:27;0.87;;;0.57;;
49610;SDS011;35515;48.766;9.176;2023-05-10T02:49:54;0.40;;;0.40;;
49610;SDS011;35515;48.766;9.176;2023-05-10T02:52:22;1.85;;;0.60;;
49610;SDS011;35515;48.766;9.176;2023-05-10T02:54:52;0.50;;;0.50;;
49610;SDS011;35515;48.766;9.176;2023-05-10T02:57:28;1.67;;;0.40;;
49610;SDS011;35515;48.766;9.176;2023-05-10T02:59:58;3.28;;;0.68;;
49610;SDS011;35515;48.766;9.176;2023-05-10T03:02:25;0.50;;;0.50;;
49610;SDS011;35515;48.766;9.176;2023-05-10T03:04:51;0.80;;;0.70;;
49610;SDS011;35515;48.766;9.176;2023-05-10T03:07:18;1.00;;;0.50;;
49610;SDS011;35515;48.766;9.176;2023-05-10T03:09:46;1.70;;;0.60;;
49610;SDS011;35515;48.766;9.176;2023-05-10T03:12:14;1.05;;;0.55;;
49610;SDS011;35515;48.766;9.176;2023-05-10T03:15:00;1.05;;;0.60;;
49610;SDS011;35515;48.766;9.176;2023-05-10T03:17:35;1.55;;;0.57;;
49610;SDS011;35515;48.766;9.176;2023-05-10T03:20:20;0.85;;;0.63;;
49610;SDS011;35515;48.766;9.176;2023-05-10T03:22:51;1.48;;;0.60;;
49610;SDS011;35515;48.766;9.176;2023-05-10T03:25:21;0.75;;;0.65;;
49610;SDS011;35515;48.766;9.176;2023-05-10T03:27:49;0.63;;;0.50;;
49610;SDS011;35515;48.766;9.176;2023-05-10T03:30:17;0.73;;;0.50;;
49610;SDS011;35515;48.766;9.176;2023-05-10T03:32:45;1.17;;;0.60;;
49610;SDS011;35515;48.766;9.176;2023-05-10T03:35:12;0.70;;;0.70;;
49610;SDS011;35515;48.766;9.176;2023-05-10T03:37:39;0.63;;;0.60;;
49610;SDS011;35515;48.766;9.176;2023-05-10T03:40:06;1.13;;;0.60;;
49610;SDS011;35515;48.766;9.176;2023-05-10T03:42:33;0.68;;;0.65;;
49610;SDS011;35515;48.766;9.176;2023-05-10T03:45:00;6.47;;;1.35;;
49610;SDS011;35515;48.766;9.176;2023-05-10T03:47:28;0.90;;;0.60;;
49610;SDS011;35515;48.766;9.176;2023-05-10T03:49:54;1.52;;;0.73;;
49610;SDS011;35515;48.766;9.176;2023-05-10T03:52:21;0.68;;;0.60;;
49610;SDS011;35515;48.766;9.176;2023-05-10T03:54:47;3.15;;;0.93;;
49610;SDS011;35515;48.766;9.176;2023-05-10T03:57:14;0.82;;;0.75;;
49610;SDS011;35515;48.766;9.176;2023-05-10T03:59:40;3.95;;;0.80;;
49610;SDS011;35515;48.766;9.176;2023-05-10T04:02:07;2.65;;;1.02;;
49610;SDS011;35515;48.766;9.176;2023-05-10T04:04:34;2.67;;;1.00;;
49610;SDS011;35515;48.766;9.176;2023-05-10T04:07:01;3.90;;;1.05;;
49610;SDS011;35515;48.766;9.176;2023-05-10T04:09:28;2.17;;;1.10;;
49610;SDS011;35515;48.766;9.176;2023-05-10T04:11:55;1.65;;;1.25;;
49610;SDS011;35515;48.766;9.176;2023-05-10T04:14:21;2.33;;;1.10;;
49610;SDS011;35515;48.766;9.176;2023-05-10T04:16:48;1.15;;;0.95;;
49610;SDS011;35515;48.766;9.176;2023-05-10T04:19:14;1.63;;;1.05;;
49610;SDS011;35515;48.766;9.176;2023-05-10T04:21:42;1.25;;;1.00;;
49610;SDS011;35515;48.766;9.176;2023-05-10T04:24:09;1.35;;;1.10;;
49610;SDS011;35515;48.766;9.176;2023-05-10T04:26:35;1.77;;;0.80;;
49610;SDS011;35515;48.766;9.176;2023-05-10T04:29:02;1.23;;;1.00;;
49610;SDS011;35515;48.766;9.176;2023-05-10T04:31:28;2.10;;;0.85;;
49610;SDS011;35515;48.766;9.176;2023-05-10T04:33:55;2.38;;;0.90;;
49610;SDS011;35515;48.766;9.176;2023-05-10T04:36:21;1.73;;;0.90;;
49610;SDS011;35515;48.766;9.176;2023-05-10T04:38:49;1.08;;;0.90;;
49610;SDS011;35515;48.766;9.176;2023-05-10T04:41:15;4.40;;;0.90;;
49610;SDS011;35515;48.766;9.176;2023-05-10T04:43:42;0.80;;;0.80;;
49610;SDS011;35515;48.766;9.176;2023-05-10T04:46:08;2.72;;;1.17;;
49610;SDS011;35515;48.766;9.176;2023-05-10T04:48:35;0.82;;;0.80;;
49610;SDS011;35515;48.766;9.176;2023-05-10T04:51:01;3.28;;;0.85;;
49610;SDS011;35515;48.766;9.176;2023-05-10T04:53:30;4.03;;;1.00;;
49610;SDS011;35515;48.766;9.176;2023-05-10T04:55:58;2.55;;;1.00;;
49610;SDS011;35515;48.766;9.176;2023-05-10T04:58:24;3.45;;;1.17;;
49610;SDS011;35515;48.766;9.176;2023-05-10T05:00:51;1.83;;;1.27;;
49610;SDS011;35515;48.766;9.176;2023-05-10T05:03:18;1.80;;;1.13;;
49610;SDS011;35515;48.766;9.176;2023-05-10T05:05:44;1.83;;;0.90;;
49610;SDS011;35515;48.766;9.176;2023-05-10T05:08:11;3.20;;;1.17;;
49610;SDS011;35515;48.766;9.176;2023-05-10T05:10:37;3.22;;;1.10;;
49610;SDS011;35515;48.766;9.176;2023-05-10T05:13:05;1.25;;;1.00;;
49610;SDS011;35515;48.766;9.176;2023-05-10T05:15:32;2.22;;;1.00;;
49610;SDS011;35515;48.766;9.176;2023-05-10T05:17:59;1.83;;;1.00;;
49610;SDS011;35515;48.766;9.176;2023-05-10T05:20:25;1.15;;;1.05;;
49610;SDS011;35515;48.766;9.176;2023-05-10T05:22:52;2.00;;;1.00;;
49610;SDS011;35515;48.766;9.176;2023-05-10T05:25:18;1.95;;;1.40;;
49610;SDS011;35515;48.766;9.176;2023-05-10T05:27:45;1.30;;;0.88;;
49610;SDS011;35515;48.766;9.176;2023-05-10T05:30:12;3.75;;;1.02;;
49610;SDS011;35515;48.766;9.176;2023-05-10T05:32:39;2.53;;;1.17;;
49610;SDS011;35515;48.766;9.176;2023-05-10T05:35:06;3.00;;;1.35;;
49610;SDS011;35515;48.766;9.176;2023-05-10T05:37:33;2.47;;;1.80;;
49610;SDS011;35515;48.766;9.176;2023-05-10T05:40:00;1.83;;;1.63;;
49610;SDS011;35515;48.766;9.176;2023-05-10T05:42:26;1.90;;;1.35;;
49610;SDS011;35515;48.766;9.176;2023-05-10T05:44:53;3.05;;;1.88;;
49610;SDS011;35515;48.766;9.176;2023-05-10T05:47:21;2.55;;;1.25;;
49610;SDS011;35515;48.766;9.176;2023-05-10T05:49:47;3.22;;;1.20;;
49610;SDS011;35515;48.766;9.176;2023-05-10T05:52:14;1.52;;;1.30;;
49610;SDS011;35515;48.766;9.176;2023-05-10T05:54:41;3.58;;;1.58;;
49610;SDS011;35515;48.766;9.176;2023-05-10T05:57:07;3.40;;;1.58;;
49610;SDS011;35515;48.766;9.176;2023-05-10T05:59:34;2.55;;;1.35;;
49610;SDS011;35515;48.766;9.176;2023-05-10T06:02:00;2.83;;;1.77;;
49610;SDS011;35515;48.766;9.176;2023-05-10T06:04:28;3.47;;;1.40;;
49610;SDS011;35515;48.766;9.176;2023-05-10T06:06:54;1.67;;;1.10;;
49610;SDS011;35515;48.766;9.176;2023-05-10T06:09:21;4.70;;;1.40;;
49610;SDS011;35515;48.766;9.176;2023-05-10T06:11:49;2.65;;;1.30;;
49610;SDS011;35515;48.766;9.176;2023-05-10T06:14:15;4.80;;;1.60;;
49610;SDS011;35515;48.766;9.176;2023-05-10T06:16:42;2.80;;;1.90;;
49610;SDS011;35515;48.766;9.176;2023-05-10T06:19:09;1.67;;;1.50;;
49610;SDS011;35515;48.766;9.176;2023-05-10T06:21:37;2.72;;;1.60;;
49610;SDS011;35515;48.766;9.176;2023-05-10T06:24:03;3.58;;;1.60;;
49610;SDS011;35515;48.766;9.176;2023-05-10T06:26:31;4.65;;;1.67;;
49610;SDS011;35515;48.766;9.176;2023-05-10T06:28:58;4.00;;;1.30;;
49610;SDS011;35515;48.766;9.176;2023-05-10T06:31:25;3.75;;;1.45;;
49610;SDS011;35515;48.766;9.176;2023-05-10T06:33:51;3.55;;;1.60;;
49610;SDS011;35515;48.766;9.176;2023-05-10T06:36:18;3.50;;;1.60;;
49610;SDS011;35515;48.766;9.176;2023-05-10T06:38:46;2.45;;;1.45;;
49610;SDS011;35515;48.766;9.176;2023-05-10T06:41:13;2.47;;;1.40;;
49610;SDS011;35515;48.766;9.176;2023-05-10T06:43:40;3.08;;;1.40;;
49610;SDS011;35515;48.766;9.176;2023-05-10T06:46:08;2.97;;;1.40;;
49610;SDS011;35515;48.766;9.176;2023-05-10T06:48:35;4.35;;;1.80;;
49610;SDS011;35515;48.766;9.176;2023-05-10T06:51:01;3.63;;;1.40;;
49610;SDS011;35515;48.766;9.176;2023-05-10T06:53:28;2.90;;;1.65;;
49610;SDS011;35515;48.766;9.176;2023-05-10T06:55:56;3.10;;;1.70;;
49610;SDS011;35515;48.766;9.176;2023-05-10T06:58:22;3.25;;;1.70;;
49610;SDS011;35515;48.766;9.176;2023-05-10T07:00:49;2.63;;;1.60;;
49610;SDS011;35515;48.766;9.176;2023-05-10T07:03:15;2.90;;;1.77;;
49610;SDS011;35515;48.766;9.176;2023-05-10T07:05:42;1.90;;;1.60;;
49610;SDS011;35515;48.766;9.176;2023-05-10T07:08:08;1.88;;;1.25;;
49610;SDS011;35515;48.766;9.176;2023-05-10T07:10:35;2.70;;;1.60;;
49610;SDS011;35515;48.766;9.176;2023-05-10T07:13:03;2.72;;;1.60;;
49610;SDS011;35515;48.766;9.176;2023-05-10T07:15:29;2.17;;;1.50;;
49610;SDS011;35515;48.766;9.176;2023-05-10T07:17:56;1.70;;;1.35;;
49610;SDS011;35515;48.766;9.176;2023-05-10T07:20:23;4.10;;;1.50;;
49610;SDS011;35515;48.766;9.176;2023-05-10T07:22:49;2.75;;;1.55;;
49610;SDS011;35515;48.766;9.176;2023-05-10T07:25:16;2.67;;;1.70;;
49610;SDS011;35515;48.766;9.176;2023-05-10T07:27:42;4.28;;;1.60;;
49610;SDS011;35515;48.766;9.176;2023-05-10T07:30:11;4.38;;;1.60;;
49610;SDS011;35515;48.766;9.176;2023-05-10T07:32:38;1.98;;;1.50;;
49610;SDS011;35515;48.766;9.176;2023-05-10T07:35:07;2.33;;;1.58;;
49610;SDS011;35515;48.766;9.176;2023-05-10T07:37:34;1.95;;;1.63;;
49610;SDS011;35515;48.766;9.176;2023-05-10T07:40:00;2.47;;;1.50;;
49610;SDS011;35515;48.766;9.176;2023-05-10T07:42:27;2.67;;;1.77;;
49610;SDS011;35515;48.766;9.176;2023-05-10T07:44:54;2.15;;;1.33;;
49610;SDS011;35515;48.766;9.176;2023-05-10T07:47:21;2.60;;;1.45;;
49610;SDS011;35515;48.766;9.176;2023-05-10T07:49:48;2.75;;;1.30;;
49610;SDS011;35515;48.766;9.176;2023-05-10T07:52:15;1.73;;;1.30;;
49610;SDS011;35515;48.766;9.176;2023-05-10T07:54:41;3.03;;;1.15;;
49610;SDS011;35515;48.766;9.176;2023-05-10T07:57:07;1.85;;;1.17;;
49610;SDS011;35515;48.766;9.176;2023-05-10T07:59:34;4.05;;;1.20;;
49610;SDS011;35515;48.766;9.176;2023-05-10T08:02:01;1.70;;;1.17;;
49610;SDS011;35515;48.766;9.176;2023-05-10T08:04:29;1.83;;;1.50;;
49610;SDS011;35515;48.766;9.176;2023-05-10T08:06:55;2.45;;;1.10;;
49610;SDS011;35515;48.766;9.176;2023-05-10T08:09:22;2.00;;;1.13;;
49610;SDS011;35515;48.766;9.176;2023-05-10T08:11:49;0.80;;;0.80;;
49610;SDS011;35515;48.766;9.176;2023-05-10T08:14:15;2.70;;;1.75;;
49610;SDS011;35515;48.766;9.176;2023-05-10T08:16:42;1.83;;;1.38;;
49610;SDS011;35515;48.766;9.176;2023-05-10T08:19:08;3.47;;;1.55;;
49610;SDS011;35515;48.766;9.176;2023-05-10T08:21:36;4.55;;;2.50;;
49610;SDS011;35515;48.766;9.176;2023-05-10T08:24:03;3.00;;;1.58;;
49610;SDS011;35515;48.766;9.176;2023-05-10T08:26:30;1.30;;;1.08;;
49610;SDS011;35515;48.766;9.176;2023-05-10T08:28:57;1.77;;;1.08;;
49610;SDS011;35515;48.766;9.176;2023-05-10T08:31:23;2.83;;;1.30;;
49610;SDS011;35515;48.766;9.176;2023-05-10T08:33:50;2.17;;;1.00;;
49610;SDS011;35515;48.766;9.176;2023-05-10T08:36:17;2.80;;;1.10;;
49610;SDS011;35515;48.766;9.176;2023-05-10T08:38:49;1.85;;;1.05;;
49610;SDS011;35515;48.766;9.176;2023-05-10T08:41:16;4.05;;;1.10;;
49610;SDS011;35515;48.766;9.176;2023-05-10T08:43:44;1.90;;;1.10;;
49610;SDS011;35515;48.766;9.176;2023-05-10T08:46:12;1.38;;;1.00;;
49610;SDS011;35515;48.766;9.176;2023-05-10T08:48:42;4.90;;;1.00;;
49610;SDS011;35515;48.766;9.176;2023-05-10T08:51:09;0.77;;;0.60;;
49610;SDS011;35515;48.766;9.176;2023-05-10T08:53:39;0.98;;;0.70;;
49610;SDS011;35515;48.766;9.176;2023-05-10T08:56:07;3.05;;;1.20;;
49610;SDS011;35515;48.766;9.176;2023-05-10T08:58:34;1.95;;;0.75;;
49610;SDS011;35515;48.766;9.176;2023-05-10T09:01:01;3.58;;;0.80;;
49610;SDS011;35515;48.766;9.176;2023-05-10T09:03:29;1.77;;;0.80;;
49610;SDS011;35515;48.766;9.176;2023-05-10T09:05:57;1.30;;;1.02;;
49610;SDS011;35515;48.766;9.176;2023-05-10T09:08:25;0.85;;;0.80;;
49610;SDS011;35515;48.766;9.176;2023-05-10T09:10:52;2.33;;;1.48;;
49610;SDS011;35515;48.766;9.176;2023-05-10T09:13:20;3.50;;;1.10;;
49610;SDS011;35515;48.766;9.176;2023-05-10T09:15:48;1.17;;;0.80;;
49610;SDS011;35515;48.766;9.176;2023-05-10T09:18:15;0.70;;;0.63;;
49610;SDS011;35515;48.766;9.176;2023-05-10T09:20:42;1.38;;;0.80;;
49610;SDS011;35515;48.766;9.176;2023-05-10T09:23:08;2.53;;;0.80;;
49610;SDS011;35515;48.766;9.176;2023-05-10T09:25:35;0.70;;;0.70;;
49610;SDS011;35515;48.766;9.176;2023-05-10T09:28:05;4.25;;;1.05;;
49610;SDS011;35515;48.766;9.176;2023-05-10T09:30:33;2.75;;;1.10;;
49610;SDS011;35515;48.766;9.176;2023-05-10T09:33:01;2.65;;;1.00;;
49610;SDS011;35515;48.766;9.176;2023-05-10T09:35:28;2.25;;;1.10;;
49610;SDS011;35515;48.766;9.176;2023-05-10T09:37:56;1.95;;;0.70;;
49610;SDS011;35515;48.766;9.176;2023-05-10T09:40:24;2.95;;;1.15;;
49610;SDS011;35515;48.766;9.176;2023-05-10T09:42:54;1.38;;;0.70;;
49610;SDS011;35515;48.766;9.176;2023-05-10T09:45:23;5.97;;;1.15;;
49610;SDS011;35515;48.766;9.176;2023-05-10T09:47:52;3.05;;;1.75;;
49610;SDS011;35515;48.766;9.176;2023-05-10T09:50:19;3.63;;;1.58;;
49610;SDS011;35515;48.766;9.176;2023-05-10T09:52:47;3.83;;;1.40;;
49610;SDS011;35515;48.766;9.176;2023-05-10T09:55:15;7.68;;;2.63;;
49610;SDS011;35515;48.766;9.176;2023-05-10T09:57:43;4.57;;;1.15;;
49610;SDS011;35515;48.766;9.176;2023-05-10T10:00:10;1.52;;;0.93;;
49610;SDS011;35515;48.766;9.176;2023-05-10T10:02:44;1.70;;;1.00;;
49610;SDS011;35515;48.766;9.176;2023-05-10T10:05:13;1.33;;;1.02;;
49610;SDS011;35515;48.766;9.176;2023-05-10T10:07:41;4.90;;;0.80;;
49610;SDS011;35515;48.766;9.176;2023-05-10T10:10:08;3.15;;;0.90;;
49610;SDS011;35515;48.766;9.176;2023-05-10T10:12:37;1.30;;;0.88;;
49610;SDS011;35515;48.766;9.176;2023-05-10T10:15:06;1.77;;;0.95;;
49610;SDS011;35515;48.766;9.176;2023-05-10T10:17:33;2.15;;;0.85;;
49610;SDS011;35515;48.766;9.176;2023-05-10T10:20:02;0.98;;;0.65;;
49610;SDS011;35515;48.766;9.176;2023-05-10T10:22:30;1.15;;;0.75;;
49610;SDS011;35515;48.766;9.176;2023-05-10T10:24:57;1.80;;;0.93;;
49610;SDS011;35515;48.766;9.176;2023-05-10T10:27:24;2.63;;;0.73;;
49610;SDS011;35515;48.766;9.176;2023-05-10T10:30:00;1.50;;;0.70;;
49610;SDS011;35515;48.766;9.176;2023-05-10T10:32:38;1.98;;;1.00;;
49610;SDS011;35515;48.766;9.176;2023-05-10T10:35:21;2.20;;;0.75;;
49610;SDS011;35515;48.766;9.176;2023-05-10T10:37:50;1.60;;;0.80;;
49610;SDS011;35515;48.766;9.176;2023-05-10T10:40:23;1.60;;;0.80;;
49610;SDS011;35515;48.766;9.176;2023-05-10T10:42:51;2.72;;;1.30;;
49610;SDS011;35515;48.766;9.176;2023-05-10T10:45:19;1.45;;;0.82;;
49610;SDS011;35515;48.766;9.176;2023-05-10T10:47:46;2.75;;;0.70;;
49610;SDS011;35515;48.766;9.176;2023-05-10T10:50:13;1.98;;;0.80;;
49610;SDS011;35515;48.766;9.176;2023-05-10T10:52:41;2.22;;;1.15;;
49610;SDS011;35515;48.766;9.176;2023-05-10T10:55:11;1.50;;;0.90;;
49610;SDS011;35515;48.766;9.176;2023-05-10T10:57:43;0.77;;;0.50;;
49610;SDS011;35515;48.766;9.176;2023-05-10T11:00:18;1.08;;;0.50;;
49610;SDS011;35515;48.766;9.176;2023-05-10T11:02:47;2.35;;;0.82;;
49610;SDS011;35515;48.766;9.176;2023-05-10T11:05:24;4.03;;;0.75;;
49610;SDS011;35515;48.766;9.176;2023-05-10T11:08:07;1.27;;;0.70;;
49610;SDS011;35515;48.766;9.176;2023-05-10T11:10:50;1.35;;;0.60;;
49610;SDS011;35515;48.766;9.176;2023-05-10T11:13:29;1.50;;;0.57;;
49610;SDS011;35515;48.766;9.176;2023-05-10T11:15:56;0.88;;;0.57;;
49610;SDS011;35515;48.766;9.176;2023-05-10T11:18:24;1.95;;;0.73;;
49610;SDS011;35515;48.766;9.176;2023-05-10T11:20:52;1.27;;;0.52;;
49610;SDS011;35515;48.766;9.176;2023-05-10T11:23:23;1.88;;;0.82;;
49610;SDS011;35515;48.766;9.176;2023-05-10T11:25:51;1.52;;;0.75;;
49610;SDS011;35515;48.766;9.176;2023-05-10T11:28:17;3.83;;;0.70;;
49610;SDS011;35515;48.766;9.176;2023-05-10T11:30:45;1.25;;;0.82;;
49610;SDS011;35515;48.766;9.176;2023-05-10T11:33:15;3.72;;;0.85;;
49610;SDS011;35515;48.766;9.176;2023-05-10T11:35:42;2.30;;;0.70;;
49610;SDS011;35515;48.766;9.176;2023-05-10T11:38:09;2.38;;;1.42;;
49610;SDS011;35515;48.766;9.176;2023-05-10T11:40:36;1.00;;;0.60;;
49610;SDS011;35515;48.766;9.176;2023-05-10T11:43:05;3.90;;;0.80;;
49610;SDS011;35515;48.766;9.176;2023-05-10T11:45:31;1.88;;;0.68;;
49610;SDS011;35515;48.766;9.176;2023-05-10T11:47:58;2.03;;;0.80;;
49610;SDS011;35515;48.766;9.176;2023-05-10T11:50:25;1.15;;;0.75;;
49610;SDS011;35515;48.766;9.176;2023-05-10T11:52:52;2.03;;;0.90;;
49610;SDS011;35515;48.766;9.176;2023-05-10T11:55:19;1.15;;;0.60;;
49610;SDS011;35515;48.766;9.176;2023-05-10T11:57:46;0.85;;;0.60;;
49610;SDS011;35515;48.766;9.176;2023-05-10T12:00:15;1.23;;;0.82;;
49610;SDS011;35515;48.766;9.176;2023-05-10T12:02:44;2.78;;;1.10;;
49610;SDS011;35515;48.766;9.176;2023-05-10T12:05:11;1.50;;;0.90;;
49610;SDS011;35515;48.766;9.176;2023-05-10T12:07:39;2.00;;;0.90;;
49610;SDS011;35515;48.766;9.176;2023-05-10T12:10:06;0.98;;;0.80;;
49610;SDS011;35515;48.766;9.176;2023-05-10T12:12:37;3.95;;;1.45;;
49610;SDS011;35515;48.766;9.176;2023-05-10T12:15:04;3.72;;;1.58;;
49610;SDS011;35515;48.766;9.176;2023-05-10T12:17:38;3.45;;;1.23;;
49610;SDS011;35515;48.766;9.176;2023-05-10T12:20:15;3.30;;;1.10;;
49610;SDS011;35515;48.766;9.176;2023-05-10T12:22:43;1.65;;;0.98;;
49610;SDS011;35515;48.766;9.176;2023-05-10T12:25:11;3.00;;;0.98;;
49610;SDS011;35515;48.766;9.176;2023-05-10T12:27:37;5.18;;;1.10;;
49610;SDS011;35515;48.766;9.176;2023-05-10T12:30:04;2.78;;;1.20;;
49610;SDS011;35515;48.766;9.176;2023-05-10T12:32:39;2.17;;;0.90;;
49610;SDS011;35515;48.766;9.176;2023-05-10T12:35:06;2.30;;;0.80;;
49610;SDS011;35515;48.766;9.176;2023-05-10T12:37:33;2.65;;;1.23;;
49610;SDS011;35515;48.766;9.176;2023-05-10T12:40:04;3.50;;;1.20;;
49610;SDS011;35515;48.766;9.176;2023-05-10T12:42:33;4.25;;;1.27;;
49610;SDS011;35515;48.766;9.176;2023-05-10T12:45:00;2.22;;;1.13;;
49610;SDS011;35515;48.766;9.176;2023-05-10T12:47:27;1.70;;;1.00;;
49610;SDS011;35515;48.766;9.176;2023-05-10T12:49:55;3.00;;;1.00;;
49610;SDS011;35515;48.766;9.176;2023-05-10T12:52:21;2.88;;;1.08;;
49610;SDS011;35515;48.766;9.176;2023-05-10T12:54:48;6.22;;;0.95;;
49610;SDS011;35515;48.766;9.176;2023-05-10T12:57:14;3.03;;;1.25;;
49610;SDS011;35515;48.766;9.176;2023-05-10T12:59:41;2.80;;;1.10;;
49610;SDS011;35515;48.766;9.176;2023-05-10T13:02:08;2.33;;;1.17;;
49610;SDS011;35515;48.766;9.176;2023-05-10T13:04:35;3.60;;;1.58;;
49610;SDS011;35515;48.766;9.176;2023-05-10T13:07:05;2.75;;;1.00;;
49610;SDS011;35515;48.766;9.176;2023-05-10T13:09:32;2.75;;;1.10;;
49610;SDS011;35515;48.766;9.176;2023-05-10T13:11:58;3.50;;;1.00;;
49610;SDS011;35515;48.766;9.176;2023-05-10T13:14:25;2.05;;;1.00;;
49610;SDS011;35515;48.766;9.176;2023-05-10T13:16:52;2.30;;;0.90;;
49610;SDS011;35515;48.766;9.176;2023-05-10T13:19:19;2.25;;;1.00;;
49610;SDS011;35515;48.766;9.176;2023-05-10T13:21:46;2.63;;;1.10;;
49610;SDS011;35515;48.766;9.176;2023-05-10T13:24:14;1.60;;;1.10;;
49610;SDS011;35515;48.766;9.176;2023-05-10T13:26:40;4.90;;;1.30;;
49610;SDS011;35515;48.766;9.176;2023-05-10T13:29:07;2.17;;;1.02;;
49610;SDS011;35515;48.766;9.176;2023-05-10T13:31:34;3.05;;;1.15;;
49610;SDS011;35515;48.766;9.176;2023-05-10T13:34:01;2.20;;;1.20;;
49610;SDS011;35515;48.766;9.176;2023-05-10T13:36:27;1.73;;;0.90;;
49610;SDS011;35515;48.766;9.176;2023-05-10T13:38:54;2.55;;;1.10;;
49610;SDS011;35515;48.766;9.176;2023-05-10T13:41:22;3.38;;;0.90;;
49610;SDS011;35515;48.766;9.176;2023-05-10T13:43:48;3.70;;;2.08;;
49610;SDS011;35515;48.766;9.176;2023-05-10T13:46:15;2.70;;;1.27;;
49610;SDS011;35515;48.766;9.176;2023-05-10T13:48:41;2.95;;;1.20;;
49610;SDS011;35515;48.766;9.176;2023-05-10T13:51:08;3.42;;;1.13;;
49610;SDS011;35515;48.766;9.176;2023-05-10T13:53:34;3.38;;;1.20;;
49610;SDS011;35515;48.766;9.176;2023-05-10T13:56:01;1.67;;;1.00;;
49610;SDS011;35515;48.766;9.176;2023-05-10T13:58:29;3.05;;;1.20;;
49610;SDS011;35515;48.766;9.176;2023-05-10T14:00:56;2.78;;;1.00;;
49610;SDS011;35515;48.766;9.176;2023-05-10T14:03:22;1.38;;;0.93;;
49610;SDS011;35515;48.766;9.176;2023-05-10T14:05:49;3.72;;;1.20;;
49610;SDS011;35515;48.766;9.176;2023-05-10T14:08:16;2.20;;;1.02;;
49610;SDS011;35515;48.766;9.176;2023-05-10T14:10:42;2.15;;;0.90;;
49610;SDS011;35515;48.766;9.176;2023-05-10T14:13:09;6.65;;;3.20;;
49610;SDS011;35515;48.766;9.176;2023-05-10T14:15:36;3.95;;;1.42;;
49610;SDS011;35515;48.766;9.176;2023-05-10T14:18:03;4.95;;;1.00;;
49610;SDS011;35515;48.766;9.176;2023-05-10T14:20:30;1.67;;;1.00;;
49610;SDS011;35515;48.766;9.176;2023-05-10T14:22:58;1.75;;;0.80;;
49610;SDS011;35515;48.766;9.176;2023-05-10T14:25:25;1.77;;;0.90;;
49610;SDS011;35515;48.766;9.176;2023-05-10T14:27:52;1.35;;;1.10;;
49610;SDS011;35515;48.766;9.176;2023-05-10T14:30:19;1.35;;;0.90;;
49610;SDS011;35515;48.766;9.176;2023-05-10T14:32:47;3.30;;;1.08;;
49610;SDS011;35515;48.766;9.176;2023-05-10T14:35:14;2.30;;;1.10;;
49610;SDS011;35515;48.766;9.176;2023-05-10T14:37:40;2.22;;;0.90;;
49610;SDS011;35515;48.766;9.176;2023-05-10T14:40:08;2.33;;;0.85;;
49610;SDS011;35515;48.766;9.176;2023-05-10T14:42:35;1.80;;;0.95;;
49610;SDS011;35515;48.766;9.176;2023-05-10T14:45:02;1.40;;;1.00;;
49610;SDS011;35515;48.766;9.176;2023-05-10T14:47:28;4.95;;;1.35;;
49610;SDS011;35515;48.766;9.176;2023-05-10T14:49:56;2.83;;;1.00;;
49610;SDS011;35515;48.766;9.176;2023-05-10T14:52:23;1.67;;;0.85;;
49610;SDS011;35515;48.766;9.176;2023-05-10T14:54:49;3.13;;;1.00;;
49610;SDS011;35515;48.766;9.176;2023-05-10T14:57:16;1.63;;;0.85;;
49610;SDS011;35515;48.766;9.176;2023-05-10T14:59:42;2.55;;;0.85;;
49610;SDS011;35515;48.766;9.176;2023-05-10T15:02:09;2.53;;;0.93;;